sensor_id;sensor_type;location;lat;lon;timestamp;pressure;altitude;pressure_sealevel;temperature;humidity
27840;BME280;15207;42.182;24.308;2023-04-01T00:00:15;98405.63;;;8.78;76.25
27840;BME280;15207;42.182;24.308;2023-04-01T00:02:41;98402.66;;;8.71;76.07
27840;BME280;15207;42.182;24.308;2023-04-01T00:05:07;98407.28;;;8.69;75.88
27840;BME280;15207;42.182;24.308;2023-04-01T00:07:32;98407.22;;;8.59;76.08
27840;BME280;15207;42.182;24.308;2023-04-01T00:09:58;98409.78;;;8.50;76.30
27840;BME280;15207;42.182;24.308;2023-04-01T00:12:23;98413.78;;;8.55;76.00
27840;BME280;15207;42.182;24.308;2023-04-01T00:14:50;98407.59;;;8.55;75.78
27840;BME280;15207;42.182;24.308;2023-04-01T00:17:15;98393.97;;;8.37;75.73
27840;BME280;15207;42.182;24.308;2023-04-01T00:19:41;98404.63;;;8.37;76.33
27840;BME280;15207;42.182;24.308;2023-04-01T00:22:07;98404.53;;;8.05;77.31
27840;BME280;15207;42.182;24.308;2023-04-01T00:24:37;98405.03;;;8.32;76.71
27840;BME280;15207;42.182;24.308;2023-04-01T00:27:03;98402.72;;;8.60;76.28
27840;BME280;15207;42.182;24.308;2023-04-01T00:29:28;98408.66;;;8.64;75.71
27840;BME280;15207;42.182;24.308;2023-04-01T00:31:56;98401.84;;;8.81;74.50
27840;BME280;15207;42.182;24.308;2023-04-01T00:34:22;98397.53;;;8.58;74.39
27840;BME280;15207;42.182;24.308;2023-04-01T00:36:49;98406.50;;;8.25;75.27
27840;BME280;15207;42.182;24.308;2023-04-01T00:39:15;98412.25;;;8.20;75.66
27840;BME280;15207;42.182;24.308;2023-04-01T00:41:41;98400.69;;;8.31;75.66
27840;BME280;15207;42.182;24.308;2023-04-01T00:44:19;98403.81;;;8.36;76.27
27840;BME280;15207;42.182;24.308;2023-04-01T00:46:45;98391.97;;;8.50;76.18
27840;BME280;15207;42.182;24.308;2023-04-01T00:49:12;98394.06;;;8.46;75.72
27840;BME280;15207;42.182;24.308;2023-04-01T00:51:38;98390.41;;;8.47;75.78
27840;BME280;15207;42.182;24.308;2023-04-01T00:54:06;98396.31;;;8.51;76.43
27840;BME280;15207;42.182;24.308;2023-04-01T00:56:36;98399.59;;;8.55;76.39
27840;BME280;15207;42.182;24.308;2023-04-01T00:59:06;98393.91;;;8.48;76.73
27840;BME280;15207;42.182;24.308;2023-04-01T01:01:35;98400.09;;;8.49;76.57
27840;BME280;15207;42.182;24.308;2023-04-01T01:04:01;98399.72;;;8.53;76.73
27840;BME280;15207;42.182;24.308;2023-04-01T01:09:02;98393.88;;;8.59;76.44
27840;BME280;15207;42.182;24.308;2023-04-01T01:11:40;98383.69;;;8.32;77.38
27840;BME280;15207;42.182;24.308;2023-04-01T01:17:06;98389.09;;;8.42;77.88
27840;BME280;15207;42.182;24.308;2023-04-01T01:20:04;98392.84;;;8.39;77.52
27840;BME280;15207;42.182;24.308;2023-04-01T01:34:09;98368.25;;;8.14;82.27
27840;BME280;15207;42.182;24.308;2023-04-01T01:36:39;98362.84;;;8.04;81.79
27840;BME280;15207;42.182;24.308;2023-04-01T01:39:06;98355.50;;;8.18;80.96
27840;BME280;15207;42.182;24.308;2023-04-01T01:41:34;98355.91;;;8.13;80.84
27840;BME280;15207;42.182;24.308;2023-04-01T01:44:03;98360.00;;;8.17;80.83
27840;BME280;15207;42.182;24.308;2023-04-01T01:46:30;98356.94;;;8.43;80.58
27840;BME280;15207;42.182;24.308;2023-04-01T01:48:57;98361.69;;;8.40;79.93
27840;BME280;15207;42.182;24.308;2023-04-01T01:51:24;98357.53;;;8.47;79.58
27840;BME280;15207;42.182;24.308;2023-04-01T01:53:49;98354.22;;;8.76;78.26
27840;BME280;15207;42.182;24.308;2023-04-01T01:56:17;98353.72;;;8.92;76.88
27840;BME280;15207;42.182;24.308;2023-04-01T01:58:53;98364.56;;;8.69;77.38
27840;BME280;15207;42.182;24.308;2023-04-01T02:01:24;98348.91;;;8.86;77.20
27840;BME280;15207;42.182;24.308;2023-04-01T02:03:52;98343.09;;;8.81;77.19
27840;BME280;15207;42.182;24.308;2023-04-01T02:06:20;98342.41;;;8.79;77.42
27840;BME280;15207;42.182;24.308;2023-04-01T02:08:53;98341.44;;;8.80;77.07
27840;BME280;15207;42.182;24.308;2023-04-01T02:11:28;98334.38;;;8.47;78.27
27840;BME280;15207;42.182;24.308;2023-04-01T02:14:02;98333.25;;;8.50;78.75
27840;BME280;15207;42.182;24.308;2023-04-01T02:16:52;98345.50;;;8.74;77.66
27840;BME280;15207;42.182;24.308;2023-04-01T02:19:22;98344.38;;;8.77;77.17
27840;BME280;15207;42.182;24.308;2023-04-01T02:21:54;98336.19;;;8.68;77.43
27840;BME280;15207;42.182;24.308;2023-04-01T02:24:23;98328.75;;;8.51;77.83
27840;BME280;15207;42.182;24.308;2023-04-01T02:26:53;98331.38;;;8.19;80.61
27840;BME280;15207;42.182;24.308;2023-04-01T02:29:21;98337.94;;;8.37;81.14
27840;BME280;15207;42.182;24.308;2023-04-01T02:31:47;98340.72;;;8.35;81.90
27840;BME280;15207;42.182;24.308;2023-04-01T02:34:14;98351.19;;;8.48;82.62
27840;BME280;15207;42.182;24.308;2023-04-01T02:36:41;98333.13;;;8.52;82.56
27840;BME280;15207;42.182;24.308;2023-04-01T02:39:07;98333.59;;;8.57;81.93
27840;BME280;15207;42.182;24.308;2023-04-01T02:41:39;98325.25;;;8.50;81.51
27840;BME280;15207;42.182;24.308;2023-04-01T02:44:05;98322.38;;;8.42;81.75
27840;BME280;15207;42.182;24.308;2023-04-01T02:46:30;98322.72;;;8.49;81.51
27840;BME280;15207;42.182;24.308;2023-04-01T02:48:56;98329.34;;;8.33;81.23
27840;BME280;15207;42.182;24.308;2023-04-01T02:51:21;98321.16;;;8.25;81.63
27840;BME280;15207;42.182;24.308;2023-04-01T02:53:46;98329.22;;;8.13;81.73
27840;BME280;15207;42.182;24.308;2023-04-01T02:56:12;98324.22;;;7.99;81.68
27840;BME280;15207;42.182;24.308;2023-04-01T02:58:37;98312.50;;;7.90;81.75
27840;BME280;15207;42.182;24.308;2023-04-01T03:01:03;98299.88;;;7.92;81.69
27840;BME280;15207;42.182;24.308;2023-04-01T03:03:28;98305.88;;;8.05;81.09
27840;BME280;15207;42.182;24.308;2023-04-01T03:05:54;98301.31;;;8.17;80.62
27840;BME280;15207;42.182;24.308;2023-04-01T03:08:24;98299.25;;;8.21;80.30
27840;BME280;15207;42.182;24.308;2023-04-01T03:10:49;98296.25;;;8.14;79.89
27840;BME280;15207;42.182;24.308;2023-04-01T03:13:15;98288.13;;;8.16;79.40
27840;BME280;15207;42.182;24.308;2023-04-01T03:15:40;98282.91;;;8.14;79.37
27840;BME280;15207;42.182;24.308;2023-04-01T03:18:06;98284.41;;;7.86;80.70
27840;BME280;15207;42.182;24.308;2023-04-01T03:20:31;98294.09;;;7.87;80.73
27840;BME280;15207;42.182;24.308;2023-04-01T03:22:57;98298.84;;;7.83;80.37
27840;BME280;15207;42.182;24.308;2023-04-01T03:25:22;98284.53;;;7.84;80.08
27840;BME280;15207;42.182;24.308;2023-04-01T03:27:48;98292.16;;;7.89;79.65
27840;BME280;15207;42.182;24.308;2023-04-01T03:30:13;98292.13;;;7.67;80.20
27840;BME280;15207;42.182;24.308;2023-04-01T03:32:39;98285.56;;;7.72;80.05
27840;BME280;15207;42.182;24.308;2023-04-01T03:35:05;98285.00;;;7.89;79.87
27840;BME280;15207;42.182;24.308;2023-04-01T03:37:30;98282.13;;;7.81;80.12
27840;BME280;15207;42.182;24.308;2023-04-01T03:39:57;98275.16;;;7.68;80.80
27840;BME280;15207;42.182;24.308;2023-04-01T03:42:22;98265.53;;;7.56;82.31
27840;BME280;15207;42.182;24.308;2023-04-01T03:44:48;98283.63;;;7.41;84.59
27840;BME280;15207;42.182;24.308;2023-04-01T03:47:13;98292.66;;;7.50;84.34
27840;BME280;15207;42.182;24.308;2023-04-01T03:49:39;98292.75;;;7.60;82.52
27840;BME280;15207;42.182;24.308;2023-04-01T03:52:04;98288.53;;;7.57;82.26
27840;BME280;15207;42.182;24.308;2023-04-01T03:54:33;98300.63;;;7.61;82.61
27840;BME280;15207;42.182;24.308;2023-04-01T03:56:58;98305.97;;;7.61;82.10
27840;BME280;15207;42.182;24.308;2023-04-01T03:59:24;98305.84;;;7.84;81.14
27840;BME280;15207;42.182;24.308;2023-04-01T04:01:49;98304.41;;;7.80;81.20
27840;BME280;15207;42.182;24.308;2023-04-01T04:04:15;98313.50;;;7.89;81.75
27840;BME280;15207;42.182;24.308;2023-04-01T04:06:41;98300.75;;;7.92;81.88
27840;BME280;15207;42.182;24.308;2023-04-01T04:09:06;98307.22;;;8.00;82.17
27840;BME280;15207;42.182;24.308;2023-04-01T04:11:32;98314.97;;;8.03;81.76
27840;BME280;15207;42.182;24.308;2023-04-01T04:14:01;98313.03;;;8.05;81.67
27840;BME280;15207;42.182;24.308;2023-04-01T04:16:27;98309.78;;;8.01;81.88
27840;BME280;15207;42.182;24.308;2023-04-01T04:18:52;98300.41;;;8.07;81.84
27840;BME280;15207;42.182;24.308;2023-04-01T04:21:18;98302.97;;;8.09;82.38
27840;BME280;15207;42.182;24.308;2023-04-01T04:23:43;98309.66;;;8.24;81.86
27840;BME280;15207;42.182;24.308;2023-04-01T04:26:12;98308.59;;;8.15;82.32
27840;BME280;15207;42.182;24.308;2023-04-01T04:28:38;98308.78;;;8.24;82.50
27840;BME280;15207;42.182;24.308;2023-04-01T04:31:04;98318.94;;;8.30;82.63
27840;BME280;15207;42.182;24.308;2023-04-01T04:33:30;98308.41;;;8.28;82.64
27840;BME280;15207;42.182;24.308;2023-04-01T04:35:57;98320.91;;;8.28;82.37
27840;BME280;15207;42.182;24.308;2023-04-01T04:38:23;98314.69;;;8.49;82.03
27840;BME280;15207;42.182;24.308;2023-04-01T04:40:48;98320.03;;;8.49;82.20
27840;BME280;15207;42.182;24.308;2023-04-01T04:43:15;98318.84;;;8.53;81.96
27840;BME280;15207;42.182;24.308;2023-04-01T04:45:41;98302.81;;;8.53;82.29
27840;BME280;15207;42.182;24.308;2023-04-01T04:48:08;98302.59;;;8.66;81.48
27840;BME280;15207;42.182;24.308;2023-04-01T04:50:35;98308.41;;;8.81;81.05
27840;BME280;15207;42.182;24.308;2023-04-01T04:53:01;98305.47;;;8.84;81.11
27840;BME280;15207;42.182;24.308;2023-04-01T04:55:26;98301.44;;;8.90;80.92
27840;BME280;15207;42.182;24.308;2023-04-01T04:57:52;98294.13;;;8.92;81.06
27840;BME280;15207;42.182;24.308;2023-04-01T05:00:18;98295.38;;;8.88;80.48
27840;BME280;15207;42.182;24.308;2023-04-01T05:02:43;98295.50;;;8.86;80.52
27840;BME280;15207;42.182;24.308;2023-04-01T05:05:09;98292.88;;;8.96;80.04
27840;BME280;15207;42.182;24.308;2023-04-01T05:07:35;98292.31;;;9.02;79.92
27840;BME280;15207;42.182;24.308;2023-04-01T05:10:01;98281.38;;;9.05;79.76
27840;BME280;15207;42.182;24.308;2023-04-01T05:12:26;98277.59;;;9.08;79.55
27840;BME280;15207;42.182;24.308;2023-04-01T05:14:52;98284.75;;;9.07;80.50
27840;BME280;15207;42.182;24.308;2023-04-01T05:17:17;98283.22;;;9.15;80.54
27840;BME280;15207;42.182;24.308;2023-04-01T05:19:43;98272.56;;;9.15;80.46
27840;BME280;15207;42.182;24.308;2023-04-01T05:22:08;98268.31;;;9.12;80.84
27840;BME280;15207;42.182;24.308;2023-04-01T05:24:34;98275.47;;;9.11;80.87
27840;BME280;15207;42.182;24.308;2023-04-01T05:26:59;98270.56;;;9.17;80.75
27840;BME280;15207;42.182;24.308;2023-04-01T05:29:25;98265.66;;;9.22;80.51
27840;BME280;15207;42.182;24.308;2023-04-01T05:31:51;98263.41;;;9.27;81.61
27840;BME280;15207;42.182;24.308;2023-04-01T05:34:17;98252.84;;;9.25;81.91
27840;BME280;15207;42.182;24.308;2023-04-01T05:36:43;98250.88;;;9.08;82.91
27840;BME280;15207;42.182;24.308;2023-04-01T05:39:09;98238.50;;;9.17;82.57
27840;BME280;15207;42.182;24.308;2023-04-01T05:41:35;98236.09;;;9.13;82.79
27840;BME280;15207;42.182;24.308;2023-04-01T05:44:01;98227.97;;;9.15;82.21
27840;BME280;15207;42.182;24.308;2023-04-01T05:46:26;98221.94;;;9.13;82.39
27840;BME280;15207;42.182;24.308;2023-04-01T05:48:52;98201.09;;;8.97;83.53
27840;BME280;15207;42.182;24.308;2023-04-01T05:51:17;98198.00;;;8.82;84.97
27840;BME280;15207;42.182;24.308;2023-04-01T05:53:43;98194.75;;;8.88;84.67
27840;BME280;15207;42.182;24.308;2023-04-01T05:56:08;98185.09;;;9.07;84.36
27840;BME280;15207;42.182;24.308;2023-04-01T05:58:37;98183.97;;;9.19;83.78
27840;BME280;15207;42.182;24.308;2023-04-01T06:01:06;98181.75;;;9.34;83.25
27840;BME280;15207;42.182;24.308;2023-04-01T06:03:32;98175.38;;;9.45;82.61
27840;BME280;15207;42.182;24.308;2023-04-01T06:05:58;98162.84;;;9.56;82.66
27840;BME280;15207;42.182;24.308;2023-04-01T06:08:24;98168.47;;;9.62;82.33
27840;BME280;15207;42.182;24.308;2023-04-01T06:16:52;98176.28;;;9.93;80.95
27840;BME280;15207;42.182;24.308;2023-04-01T06:28:13;98166.03;;;10.65;78.95
27840;BME280;15207;42.182;24.308;2023-04-01T06:31:24;98158.34;;;10.80;77.72
27840;BME280;15207;42.182;24.308;2023-04-01T06:34:06;98173.13;;;11.02;77.64
27840;BME280;15207;42.182;24.308;2023-04-01T06:50:23;98151.19;;;11.61;72.60
27840;BME280;15207;42.182;24.308;2023-04-01T06:58:04;98157.41;;;11.88;72.46
27840;BME280;15207;42.182;24.308;2023-04-01T07:00:40;98162.41;;;12.10;71.05
27840;BME280;15207;42.182;24.308;2023-04-01T07:03:21;98169.81;;;11.89;71.49
27840;BME280;15207;42.182;24.308;2023-04-01T07:05:48;98158.97;;;11.99;71.56
27840;BME280;15207;42.182;24.308;2023-04-01T07:08:24;98168.53;;;12.20;70.70
27840;BME280;15207;42.182;24.308;2023-04-01T07:10:55;98165.41;;;11.80;71.75
27840;BME280;15207;42.182;24.308;2023-04-01T07:13:30;98169.16;;;11.87;72.02
27840;BME280;15207;42.182;24.308;2023-04-01T07:16:25;98175.38;;;12.14;71.67
27840;BME280;15207;42.182;24.308;2023-04-01T07:19:16;98174.53;;;12.49;69.93
27840;BME280;15207;42.182;24.308;2023-04-01T07:21:51;98182.41;;;12.15;70.71
27840;BME280;15207;42.182;24.308;2023-04-01T07:24:27;98168.19;;;12.15;70.38
27840;BME280;15207;42.182;24.308;2023-04-01T07:26:54;98162.13;;;12.13;70.57
27840;BME280;15207;42.182;24.308;2023-04-01T07:29:21;98164.00;;;12.21;70.80
27840;BME280;15207;42.182;24.308;2023-04-01T07:32:13;98161.44;;;12.11;70.91
27840;BME280;15207;42.182;24.308;2023-04-01T07:34:52;98166.25;;;12.07;71.63
27840;BME280;15207;42.182;24.308;2023-04-01T07:40:39;98158.78;;;12.19;71.40
27840;BME280;15207;42.182;24.308;2023-04-01T07:43:31;98148.59;;;12.23;71.42
27840;BME280;15207;42.182;24.308;2023-04-01T07:46:22;98150.28;;;12.32;71.23
27840;BME280;15207;42.182;24.308;2023-04-01T07:49:07;98149.13;;;12.35;70.69
27840;BME280;15207;42.182;24.308;2023-04-01T07:51:41;98161.38;;;12.29;71.25
27840;BME280;15207;42.182;24.308;2023-04-01T08:08:28;98137.88;;;12.31;70.67
27840;BME280;15207;42.182;24.308;2023-04-01T08:13:55;98135.00;;;12.24;70.40
27840;BME280;15207;42.182;24.308;2023-04-01T08:22:26;98119.63;;;12.43;71.59
27840;BME280;15207;42.182;24.308;2023-04-01T08:24:55;98111.63;;;12.51;70.56
27840;BME280;15207;42.182;24.308;2023-04-01T08:27:31;98111.75;;;12.41;71.04
27840;BME280;15207;42.182;24.308;2023-04-01T08:30:15;98099.56;;;12.64;70.30
27840;BME280;15207;42.182;24.308;2023-04-01T08:32:47;98093.19;;;12.73;69.68
27840;BME280;15207;42.182;24.308;2023-04-01T08:35:31;98072.56;;;12.90;68.03
27840;BME280;15207;42.182;24.308;2023-04-01T08:38:01;98060.81;;;12.91;68.35
27840;BME280;15207;42.182;24.308;2023-04-01T08:41:00;98066.88;;;13.18;67.51
27840;BME280;15207;42.182;24.308;2023-04-01T08:46:12;98056.44;;;13.07;67.30
27840;BME280;15207;42.182;24.308;2023-04-01T08:48:45;98057.47;;;12.89;67.79
27840;BME280;15207;42.182;24.308;2023-04-01T08:57:35;98033.44;;;13.21;68.28
27840;BME280;15207;42.182;24.308;2023-04-01T09:22:09;98012.59;;;13.31;64.88
27840;BME280;15207;42.182;24.308;2023-04-01T09:27:30;98003.59;;;13.81;61.53
27840;BME280;15207;42.182;24.308;2023-04-01T09:30:28;98008.56;;;13.92;61.66
27840;BME280;15207;42.182;24.308;2023-04-01T09:35:45;98001.88;;;14.20;59.93
27840;BME280;15207;42.182;24.308;2023-04-01T09:38:30;97993.50;;;14.46;58.89
27840;BME280;15207;42.182;24.308;2023-04-01T09:55:21;97952.03;;;14.79;58.17
27840;BME280;15207;42.182;24.308;2023-04-01T10:06:33;97919.22;;;15.44;54.71
27840;BME280;15207;42.182;24.308;2023-04-01T10:18:29;97904.88;;;15.13;56.98
27840;BME280;15207;42.182;24.308;2023-04-01T10:21:10;97882.56;;;15.19;57.63
27840;BME280;15207;42.182;24.308;2023-04-01T10:32:15;97875.69;;;16.21;54.50
27840;BME280;15207;42.182;24.308;2023-04-01T10:57:21;97818.31;;;15.75;56.32
27840;BME280;15207;42.182;24.308;2023-04-01T11:02:43;97810.75;;;16.58;53.06
27840;BME280;15207;42.182;24.308;2023-04-01T11:24:34;97784.91;;;16.20;54.01
27840;BME280;15207;42.182;24.308;2023-04-01T11:45:50;97756.81;;;16.78;51.37
27840;BME280;15207;42.182;24.308;2023-04-01T11:48:50;97753.47;;;16.69;51.97
27840;BME280;15207;42.182;24.308;2023-04-01T11:51:52;97752.94;;;16.87;51.40
27840;BME280;15207;42.182;24.308;2023-04-01T12:05:39;97729.47;;;16.95;51.75
27840;BME280;15207;42.182;24.308;2023-04-01T12:08:31;97716.69;;;17.10;51.71
27840;BME280;15207;42.182;24.308;2023-04-01T12:13:52;97720.88;;;17.26;53.44
27840;BME280;15207;42.182;24.308;2023-04-01T12:22:26;97682.19;;;17.26;50.55
27840;BME280;15207;42.182;24.308;2023-04-01T12:24:59;97680.09;;;17.28;50.51
27840;BME280;15207;42.182;24.308;2023-04-01T12:27:47;97697.41;;;17.34;50.47
27840;BME280;15207;42.182;24.308;2023-04-01T12:36:25;97687.47;;;17.61;49.60
27840;BME280;15207;42.182;24.308;2023-04-01T12:50:26;97653.75;;;18.18;47.22
27840;BME280;15207;42.182;24.308;2023-04-01T12:55:45;97671.19;;;18.35;46.71
27840;BME280;15207;42.182;24.308;2023-04-01T13:01:25;97677.28;;;18.17;47.42
27840;BME280;15207;42.182;24.308;2023-04-01T13:04:25;97698.75;;;18.26;47.39
27840;BME280;15207;42.182;24.308;2023-04-01T13:07:14;97751.88;;;18.20;47.25
27840;BME280;15207;42.182;24.308;2023-04-01T13:15:58;97815.69;;;17.11;49.78
27840;BME280;15207;42.182;24.308;2023-04-01T13:21:20;97818.50;;;16.68;54.73
27840;BME280;15207;42.182;24.308;2023-04-01T13:27:01;97815.31;;;16.29;64.97
27840;BME280;15207;42.182;24.308;2023-04-01T13:32:10;97841.78;;;15.59;75.67
27840;BME280;15207;42.182;24.308;2023-04-01T13:42:54;97867.47;;;14.18;82.43
27840;BME280;15207;42.182;24.308;2023-04-01T13:45:24;97870.38;;;13.85;86.38
27840;BME280;15207;42.182;24.308;2023-04-01T14:10:03;97826.59;;;13.68;96.55
27840;BME280;15207;42.182;24.308;2023-04-01T14:20:37;97813.31;;;14.36;95.82
27840;BME280;15207;42.182;24.308;2023-04-01T14:23:29;97830.69;;;14.49;96.32
27840;BME280;15207;42.182;24.308;2023-04-01T14:26:20;97841.34;;;14.42;94.86
27840;BME280;15207;42.182;24.308;2023-04-01T14:37:48;97848.56;;;14.03;99.02
27840;BME280;15207;42.182;24.308;2023-04-01T14:44:18;97824.09;;;14.13;99.13
27840;BME280;15207;42.182;24.308;2023-04-01T14:49:43;97805.31;;;14.28;100.00
27840;BME280;15207;42.182;24.308;2023-04-01T14:52:16;97812.75;;;14.41;100.00
27840;BME280;15207;42.182;24.308;2023-04-01T14:54:48;97816.06;;;14.66;100.00
27840;BME280;15207;42.182;24.308;2023-04-01T14:57:28;97822.78;;;14.86;100.00
27840;BME280;15207;42.182;24.308;2023-04-01T15:00:15;97822.41;;;15.19;100.00
27840;BME280;15207;42.182;24.308;2023-04-01T15:05:45;97802.31;;;15.58;95.60
27840;BME280;15207;42.182;24.308;2023-04-01T15:11:14;97808.13;;;15.77;91.41
27840;BME280;15207;42.182;24.308;2023-04-01T15:14:08;97805.00;;;15.73;91.06
27840;BME280;15207;42.182;24.308;2023-04-01T15:19:42;97790.81;;;15.65;89.37
27840;BME280;15207;42.182;24.308;2023-04-01T15:27:55;97794.38;;;15.50;90.99
27840;BME280;15207;42.182;24.308;2023-04-01T15:30:30;97803.59;;;15.41;92.32
27840;BME280;15207;42.182;24.308;2023-04-01T15:38:49;97849.66;;;15.09;93.03
27840;BME280;15207;42.182;24.308;2023-04-01T15:41:18;97854.28;;;14.85;91.57
27840;BME280;15207;42.182;24.308;2023-04-01T15:43:47;97840.63;;;14.87;93.06
27840;BME280;15207;42.182;24.308;2023-04-01T15:52:10;97821.53;;;14.73;91.00
27840;BME280;15207;42.182;24.308;2023-04-01T15:57:25;97816.53;;;14.70;90.54
27840;BME280;15207;42.182;24.308;2023-04-01T16:02:53;97808.81;;;14.52;92.12
27840;BME280;15207;42.182;24.308;2023-04-01T16:05:42;97808.81;;;14.52;92.25
27840;BME280;15207;42.182;24.308;2023-04-01T16:08:20;97810.06;;;14.41;91.29
27840;BME280;15207;42.182;24.308;2023-04-01T16:13:46;97838.75;;;14.10;90.01
27840;BME280;15207;42.182;24.308;2023-04-01T16:16:29;97836.00;;;13.95;91.59
27840;BME280;15207;42.182;24.308;2023-04-01T16:29:59;97779.25;;;13.58;97.32
27840;BME280;15207;42.182;24.308;2023-04-01T16:32:46;97771.13;;;13.35;95.41
27840;BME280;15207;42.182;24.308;2023-04-01T16:35:28;97774.66;;;13.35;95.42
27840;BME280;15207;42.182;24.308;2023-04-01T16:38:12;97779.06;;;13.28;96.38
27840;BME280;15207;42.182;24.308;2023-04-01T16:41:37;97797.47;;;13.40;97.53
27840;BME280;15207;42.182;24.308;2023-04-01T16:47:11;97777.41;;;13.19;97.70
27840;BME280;15207;42.182;24.308;2023-04-01T16:50:05;97774.47;;;13.05;98.01
27840;BME280;15207;42.182;24.308;2023-04-01T16:52:57;97764.38;;;13.07;95.79
27840;BME280;15207;42.182;24.308;2023-04-01T16:56:02;97750.66;;;12.94;95.14
27840;BME280;15207;42.182;24.308;2023-04-01T17:01:25;97754.53;;;12.91;93.32
27840;BME280;15207;42.182;24.308;2023-04-01T17:04:16;97765.28;;;12.91;93.21
27840;BME280;15207;42.182;24.308;2023-04-01T17:12:50;97771.75;;;12.74;93.44
27840;BME280;15207;42.182;24.308;2023-04-01T17:21:10;97867.28;;;12.43;94.76
27840;BME280;15207;42.182;24.308;2023-04-01T17:33:33;98019.19;;;11.76;87.38
27840;BME280;15207;42.182;24.308;2023-04-01T17:52:17;98077.25;;;11.85;84.58
27840;BME280;15207;42.182;24.308;2023-04-01T17:58:19;98093.41;;;11.94;87.30
27840;BME280;15207;42.182;24.308;2023-04-01T18:01:01;98085.00;;;11.88;84.68
27840;BME280;15207;42.182;24.308;2023-04-01T18:04:04;98065.69;;;11.85;84.86
27840;BME280;15207;42.182;24.308;2023-04-01T18:20:41;98065.66;;;11.76;84.86
27840;BME280;15207;42.182;24.308;2023-04-01T18:23:47;98072.03;;;11.84;83.18
27840;BME280;15207;42.182;24.308;2023-04-01T18:26:44;98076.59;;;11.83;85.83
27840;BME280;15207;42.182;24.308;2023-04-01T18:32:13;98069.59;;;11.64;84.78
27840;BME280;15207;42.182;24.308;2023-04-01T18:34:54;98080.31;;;11.64;84.58
27840;BME280;15207;42.182;24.308;2023-04-01T18:37:30;98073.75;;;11.58;83.27
27840;BME280;15207;42.182;24.308;2023-04-01T18:40:10;98064.28;;;11.46;82.20
27840;BME280;15207;42.182;24.308;2023-04-01T18:54:11;98060.19;;;11.33;84.78
27840;BME280;15207;42.182;24.308;2023-04-01T18:56:42;98062.22;;;11.40;82.93
27840;BME280;15207;42.182;24.308;2023-04-01T18:59:12;98063.81;;;11.50;85.09
27840;BME280;15207;42.182;24.308;2023-04-01T19:16:25;98089.63;;;11.51;85.10
27840;BME280;15207;42.182;24.308;2023-04-01T19:21:32;98098.47;;;11.44;86.80
27840;BME280;15207;42.182;24.308;2023-04-01T19:27:06;98106.28;;;11.37;82.54
27840;BME280;15207;42.182;24.308;2023-04-01T19:44:01;98117.56;;;11.04;87.95
27840;BME280;15207;42.182;24.308;2023-04-01T19:46:36;98122.31;;;10.92;86.88
27840;BME280;15207;42.182;24.308;2023-04-01T19:49:17;98102.94;;;10.80;85.82
27840;BME280;15207;42.182;24.308;2023-04-01T19:54:40;98113.41;;;10.74;83.18
27840;BME280;15207;42.182;24.308;2023-04-01T20:04:45;98106.75;;;10.60;80.88
27840;BME280;15207;42.182;24.308;2023-04-01T20:07:37;98108.09;;;10.45;80.07
27840;BME280;15207;42.182;24.308;2023-04-01T20:10:10;98129.19;;;10.49;81.40
27840;BME280;15207;42.182;24.308;2023-04-01T20:16:00;98142.06;;;10.35;80.38
27840;BME280;15207;42.182;24.308;2023-04-01T20:23:43;98159.00;;;10.26;80.67
27840;BME280;15207;42.182;24.308;2023-04-01T20:26:12;98153.81;;;10.24;80.70
27840;BME280;15207;42.182;24.308;2023-04-01T20:34:00;98157.94;;;10.09;80.37
27840;BME280;15207;42.182;24.308;2023-04-01T20:36:56;98169.78;;;10.06;80.90
27840;BME280;15207;42.182;24.308;2023-04-01T20:39:45;98169.91;;;10.14;81.54
27840;BME280;15207;42.182;24.308;2023-04-01T20:42:34;98166.41;;;10.04;81.00
27840;BME280;15207;42.182;24.308;2023-04-01T20:45:22;98186.69;;;10.07;80.61
27840;BME280;15207;42.182;24.308;2023-04-01T20:50:51;98195.81;;;10.04;80.44
27840;BME280;15207;42.182;24.308;2023-04-01T21:18:30;98236.13;;;9.92;79.51
27840;BME280;15207;42.182;24.308;2023-04-01T21:27:05;98241.03;;;9.97;80.36
27840;BME280;15207;42.182;24.308;2023-04-01T21:32:34;98244.31;;;10.29;80.57
27840;BME280;15207;42.182;24.308;2023-04-01T21:44:26;98251.63;;;9.39;84.27
27840;BME280;15207;42.182;24.308;2023-04-01T21:47:05;98248.25;;;9.28;84.87
27840;BME280;15207;42.182;24.308;2023-04-01T21:49:49;98268.31;;;9.22;85.81
27840;BME280;15207;42.182;24.308;2023-04-01T21:52:32;98278.72;;;9.15;86.37
27840;BME280;15207;42.182;24.308;2023-04-01T22:00:24;98274.44;;;8.83;85.68
27840;BME280;15207;42.182;24.308;2023-04-01T22:08:33;98266.38;;;9.44;79.28
27840;BME280;15207;42.182;24.308;2023-04-01T22:11:41;98266.13;;;9.57;77.92
27840;BME280;15207;42.182;24.308;2023-04-01T22:14:23;98261.47;;;9.69;76.86
27840;BME280;15207;42.182;24.308;2023-04-01T22:16:59;98260.06;;;9.74;76.09
27840;BME280;15207;42.182;24.308;2023-04-01T22:27:40;98258.34;;;10.03;75.31
27840;BME280;15207;42.182;24.308;2023-04-01T22:30:17;98257.91;;;9.98;75.94
27840;BME280;15207;42.182;24.308;2023-04-01T22:32:46;98270.03;;;10.02;76.21
27840;BME280;15207;42.182;24.308;2023-04-01T22:35:27;98264.25;;;10.07;77.29
27840;BME280;15207;42.182;24.308;2023-04-01T22:40:35;98275.50;;;10.10;75.47
27840;BME280;15207;42.182;24.308;2023-04-01T22:43:28;98284.63;;;10.17;74.06
27840;BME280;15207;42.182;24.308;2023-04-01T22:48:54;98276.38;;;10.01;75.61
27840;BME280;15207;42.182;24.308;2023-04-01T22:54:39;98294.94;;;9.73;77.44
27840;BME280;15207;42.182;24.308;2023-04-01T23:00:05;98291.13;;;9.26;80.25
27840;BME280;15207;42.182;24.308;2023-04-01T23:02:39;98298.22;;;9.06;81.56
27840;BME280;15207;42.182;24.308;2023-04-01T23:05:12;98301.63;;;9.08;80.89
27840;BME280;15207;42.182;24.308;2023-04-01T23:10:37;98317.16;;;8.83;82.40
27840;BME280;15207;42.182;24.308;2023-04-01T23:13:10;98307.84;;;8.77;82.33
27840;BME280;15207;42.182;24.308;2023-04-01T23:15:38;98307.81;;;8.46;83.52